CheckWX is a tool to help pilots better visualize weather data.  It is not intended as a substitute for an official pre-flight weather briefing.

04:07:40 UTC

KBYL METAR
Williamsburg-Whitley County Airport
Williamsburg, Kentucky, USA
Current

33 mins ago

KBYL 190335Z AUTO 29008G16KT 250V330 10SM BKN018 OVC031 09/08 A3002 RMK AO1
Observed
Jan-19 @ 03:35 UTC
Wind
  • 290° at 8 KTS
  • Gusting to 16 KTS
Visibility
10 SM
Flight Rules
MVFR
Cloud Levels
  • Broken at 1,800' AGL
  • Overcast at 3,100' AGL
Temperature
C / 48°F
Dewpoint
C / 46°F
Humidity
94%
Altimeter
30.02" Hg
Pressure
1016.62 hPa
Previous

53 mins ago

KBYL 190315Z AUTO 27008KT 220V300 10SM BKN018 BKN026 OVC032 10/09 A3001 RMK AO1
Observed
Jan-19 @ 03:15 UTC
Wind
  • 270° at 8 KTS
Visibility
10 SM
Flight Rules
MVFR
Cloud Levels
  • Broken at 1,800' AGL
  • Broken at 2,600' AGL
  • Overcast at 3,200' AGL
Temperature
10°C / 50°F
Dewpoint
C / 48°F
Humidity
94%
Altimeter
30.01" Hg
Pressure
1016.22 hPa
Previous

1 hour ago

KBYL 190255Z AUTO 24006KT 10SM SCT026 OVC032 10/09 A3000 RMK AO1
Observed
Jan-19 @ 02:55 UTC
Wind
  • 240° at 6 KTS
Visibility
10 SM
Flight Rules
VFR
Cloud Levels
  • Scattered at 2,600' AGL
  • Overcast at 3,200' AGL
Temperature
10°C / 50°F
Dewpoint
C / 48°F
Humidity
94%
Altimeter
30" Hg
Pressure
1015.92 hPa